createdAt,value
2022-11-03T00:00:12.832Z,14.605
2022-11-03T00:01:12.015Z,14.6036
2022-11-03T00:02:12.391Z,14.626
2022-11-03T00:03:11.740Z,14.6258
2022-11-03T00:04:11.735Z,14.658
2022-11-03T00:05:12.436Z,14.616
2022-11-03T00:06:12.298Z,14.6145
2022-11-03T00:07:12.757Z,14.641
2022-11-03T00:09:12.342Z,14.666
2022-11-03T00:10:12.056Z,14.683
2022-11-03T00:11:12.560Z,14.705
2022-11-03T00:12:12.010Z,14.6891
2022-11-03T00:13:12.636Z,14.703
2022-11-03T00:14:12.098Z,14.755
2022-11-03T00:15:11.544Z,14.75
2022-11-03T00:16:13.015Z,14.775
2022-11-03T00:17:12.221Z,14.744
2022-11-03T00:18:11.920Z,14.755
2022-11-03T00:19:12.608Z,14.765
2022-11-03T00:20:11.945Z,14.765
2022-11-03T00:21:12.117Z,14.775
2022-11-03T00:22:11.788Z,14.765
2022-11-03T00:23:11.866Z,14.755
2022-11-03T00:24:11.517Z,14.76
2022-11-03T00:25:12.608Z,14.775
2022-11-03T00:26:12.199Z,14.76
2022-11-03T00:27:11.221Z,14.74
2022-11-03T00:28:12.551Z,14.73
2022-11-03T00:29:11.645Z,14.7
2022-11-03T00:30:11.526Z,14.71
2022-11-03T00:31:11.989Z,14.725
2022-11-03T00:32:12.092Z,14.699
2022-11-03T00:33:11.782Z,14.6783
2022-11-03T00:34:12.292Z,14.709
2022-11-03T00:35:11.917Z,14.71
2022-11-03T00:36:10.830Z,14.7
2022-11-03T00:37:12.356Z,14.71
2022-11-03T00:38:12.106Z,14.72
2022-11-03T00:39:11.740Z,14.745
2022-11-03T00:40:12.369Z,14.76
2022-11-03T00:41:11.725Z,14.77
2022-11-03T00:42:12.826Z,14.765
2022-11-03T00:43:11.944Z,14.78
2022-11-03T00:44:11.764Z,14.795
2022-11-03T00:45:12.231Z,14.79
2022-11-03T00:46:12.263Z,14.8
2022-11-03T00:47:11.089Z,14.805
2022-11-03T00:48:10.658Z,14.78
2022-11-03T00:49:11.711Z,14.785
2022-11-03T00:50:11.404Z,14.8
2022-11-03T00:51:12.361Z,14.795
2022-11-03T00:52:10.919Z,14.775
2022-11-03T00:53:12.578Z,14.77
2022-11-03T00:54:11.711Z,14.785
2022-11-03T00:55:11.183Z,14.765
2022-11-03T00:56:12.090Z,14.75
2022-11-03T00:57:11.792Z,14.765
2022-11-03T00:58:10.813Z,14.79
2022-11-03T00:59:11.921Z,14.765
2022-11-03T01:00:11.520Z,14.77
2022-11-03T01:01:11.449Z,14.795
2022-11-03T01:02:11.060Z,14.81
2022-11-03T01:03:11.625Z,14.805
2022-11-03T01:04:10.938Z,14.8
2022-11-03T01:05:14.828Z,14.8
2022-11-03T01:06:10.559Z,14.795
2022-11-03T01:07:12.357Z,14.805
2022-11-03T01:08:11.287Z,14.795
2022-11-03T01:09:11.942Z,14.795
2022-11-03T01:10:11.418Z,14.785
2022-11-03T01:11:11.020Z,14.785
2022-11-03T01:12:11.765Z,14.76
2022-11-03T01:13:11.951Z,14.765
2022-11-03T01:14:10.685Z,14.76
2022-11-03T01:15:11.610Z,14.77
2022-11-03T01:16:11.412Z,14.735
2022-11-03T01:17:10.883Z,14.76
2022-11-03T01:18:11.609Z,14.79
2022-11-03T01:19:11.463Z,14.755
2022-11-03T01:20:10.027Z,14.76
2022-11-03T01:21:12.120Z,14.79
2022-11-03T01:22:11.443Z,14.77
2022-11-03T01:23:13.810Z,14.76
2022-11-03T01:24:11.240Z,14.745
2022-11-03T01:25:11.346Z,14.71
2022-11-03T01:26:10.870Z,14.7445
2022-11-03T01:27:12.735Z,14.745
2022-11-03T01:28:11.012Z,14.7554
2022-11-03T01:29:11.487Z,14.715
2022-11-03T01:30:11.710Z,14.736
2022-11-03T01:31:11.113Z,14.7936
2022-11-03T01:32:11.071Z,14.805
2022-11-03T01:33:11.533Z,14.78
2022-11-03T01:34:10.661Z,14.805
2022-11-03T01:35:10.627Z,14.785
2022-11-03T01:36:11.905Z,14.795
2022-11-03T01:37:10.880Z,14.79
2022-11-03T01:38:11.392Z,14.782
2022-11-03T01:39:11.434Z,14.7772
2022-11-03T01:40:11.421Z,14.785
2022-11-03T01:41:11.628Z,14.77
2022-11-03T01:42:11.908Z,14.76
2022-11-03T01:43:11.152Z,14.775
2022-11-03T01:44:12.698Z,14.7592
2022-11-03T01:45:11.265Z,14.799
2022-11-03T01:46:11.229Z,14.765
2022-11-03T01:47:11.611Z,14.79
2022-11-03T01:48:10.724Z,14.79
2022-11-03T01:49:10.830Z,14.79
2022-11-03T01:50:12.025Z,14.76
2022-11-03T01:51:11.283Z,14.76
2022-11-03T01:52:11.708Z,14.77
2022-11-03T01:53:11.602Z,14.765
2022-11-03T01:54:10.976Z,14.775
2022-11-03T01:55:11.581Z,14.79
2022-11-03T01:56:11.150Z,14.785
2022-11-03T01:57:11.412Z,14.785
2022-11-03T01:58:12.013Z,14.765
2022-11-03T01:59:11.772Z,14.795
2022-11-03T02:00:11.130Z,14.78
2022-11-03T02:01:11.494Z,14.785
2022-11-03T02:02:11.654Z,14.77
2022-11-03T02:03:11.411Z,14.775
2022-11-03T02:04:11.157Z,14.79
2022-11-03T02:05:11.667Z,14.8
2022-11-03T02:06:11.395Z,14.8
2022-11-03T02:07:11.751Z,14.745
2022-11-03T02:08:11.419Z,14.765
2022-11-03T02:09:11.481Z,14.755
2022-11-03T02:10:11.509Z,14.709
2022-11-03T02:11:11.578Z,14.71
2022-11-03T02:12:11.397Z,14.715
2022-11-03T02:13:12.292Z,14.755
2022-11-03T02:14:11.583Z,14.775
2022-11-03T02:15:12.172Z,14.78
2022-11-03T02:16:12.706Z,14.775
2022-11-03T02:17:11.243Z,14.765
2022-11-03T02:18:12.291Z,14.785
2022-11-03T02:19:12.035Z,14.795
2022-11-03T02:20:11.704Z,14.775
2022-11-03T02:21:12.015Z,14.775
2022-11-03T02:22:12.065Z,14.76
2022-11-03T02:23:11.961Z,14.78
2022-11-03T02:24:11.890Z,14.785
2022-11-03T02:25:11.781Z,14.78
2022-11-03T02:26:11.631Z,14.785
2022-11-03T02:27:12.331Z,14.77
2022-11-03T02:28:11.793Z,14.76
2022-11-03T02:29:11.633Z,14.76
2022-11-03T02:30:12.171Z,14.76
2022-11-03T02:31:12.058Z,14.755
2022-11-03T02:32:12.107Z,14.79
2022-11-03T02:33:12.333Z,14.828
2022-11-03T02:34:11.827Z,14.827
2022-11-03T02:35:11.793Z,14.856
2022-11-03T02:36:12.446Z,14.85
2022-11-03T02:37:12.735Z,14.856
2022-11-03T02:38:11.758Z,14.8216
2022-11-03T02:39:12.212Z,14.856
2022-11-03T02:40:14.793Z,14.816
2022-11-03T02:41:12.278Z,14.805
2022-11-03T02:42:11.792Z,14.77
2022-11-03T02:43:11.982Z,14.775
2022-11-03T02:44:12.617Z,14.765
2022-11-03T02:45:16.404Z,14.785
2022-11-03T02:46:11.345Z,14.8045
2022-11-03T02:47:11.580Z,14.7915
2022-11-03T02:48:12.282Z,14.795
2022-11-03T02:49:12.268Z,14.7881
2022-11-03T02:50:12.566Z,14.786
2022-11-03T02:51:12.775Z,14.765
2022-11-03T02:52:12.012Z,14.744
2022-11-03T02:53:12.415Z,14.726
2022-11-03T02:54:11.921Z,14.7227
2022-11-03T02:55:12.567Z,14.745
2022-11-03T02:56:12.187Z,14.715
2022-11-03T02:57:12.074Z,14.7227
2022-11-03T02:58:11.941Z,14.72
2022-11-03T02:59:11.842Z,14.7
2022-11-03T03:00:11.566Z,14.73
2022-11-03T03:01:12.595Z,14.75
2022-11-03T03:02:11.863Z,14.735
2022-11-03T03:03:12.228Z,14.735
2022-11-03T03:04:11.573Z,14.795
2022-11-03T03:05:12.456Z,14.765
2022-11-03T03:06:11.265Z,14.76
2022-11-03T03:07:12.578Z,14.73
2022-11-03T03:08:13.873Z,14.725
2022-11-03T03:09:15.904Z,14.73
2022-11-03T03:10:12.282Z,14.699
2022-11-03T03:11:11.186Z,14.735
2022-11-03T03:12:13.321Z,14.735
2022-11-03T03:13:11.640Z,14.745
2022-11-03T03:14:11.237Z,14.73
2022-11-03T03:15:12.226Z,14.735
2022-11-03T03:16:11.275Z,14.75
2022-11-03T03:17:11.111Z,14.765
2022-11-03T03:18:11.802Z,14.74
2022-11-03T03:19:10.901Z,14.765
2022-11-03T03:20:11.018Z,14.765
2022-11-03T03:21:13.442Z,14.78
2022-11-03T03:22:11.366Z,14.79
2022-11-03T03:23:12.641Z,14.79
2022-11-03T03:24:10.134Z,14.805
2022-11-03T03:25:10.974Z,14.8
2022-11-03T03:26:11.255Z,14.785
2022-11-03T03:27:10.949Z,14.79
2022-11-03T03:28:12.212Z,14.785
2022-11-03T03:29:11.611Z,14.795
2022-11-03T03:30:11.026Z,14.8
2022-11-03T03:31:11.668Z,14.79
2022-11-03T03:32:11.684Z,14.765
2022-11-03T03:33:11.352Z,14.77
2022-11-03T03:34:31.503Z,14.76
2022-11-03T03:35:11.385Z,14.76
2022-11-03T03:36:11.197Z,14.77
2022-11-03T03:37:11.787Z,14.785
2022-11-03T03:38:11.181Z,14.785
2022-11-03T03:39:11.880Z,14.76
2022-11-03T03:40:11.394Z,14.77
2022-11-03T03:41:11.158Z,14.75
2022-11-03T03:42:11.432Z,14.785
2022-11-03T03:43:11.191Z,14.805
2022-11-03T03:44:18.016Z,14.826
2022-11-03T03:45:11.992Z,14.848
2022-11-03T03:46:10.939Z,14.817
2022-11-03T03:47:11.075Z,14.8
2022-11-03T03:48:11.785Z,14.817
2022-11-03T03:49:11.504Z,14.862
2022-11-03T03:50:10.638Z,14.85
2022-11-03T03:51:11.494Z,14.827
2022-11-03T03:52:10.611Z,14.79
2022-11-03T03:53:11.907Z,14.77
2022-11-03T03:54:10.493Z,14.765
2022-11-03T03:55:10.846Z,14.77
2022-11-03T03:56:11.597Z,14.77
2022-11-03T03:57:11.315Z,14.76
2022-11-03T03:58:10.985Z,14.76
2022-11-03T03:59:11.189Z,14.765
2022-11-03T04:00:10.603Z,14.795
2022-11-03T04:01:11.744Z,14.79
2022-11-03T04:02:11.449Z,14.81
2022-11-03T04:03:10.847Z,14.79
2022-11-03T04:04:11.294Z,14.79
2022-11-03T04:05:11.393Z,14.77
2022-11-03T04:06:10.800Z,14.78
2022-11-03T04:07:12.120Z,14.785
2022-11-03T04:08:11.321Z,14.795
2022-11-03T04:09:11.191Z,14.7827
2022-11-03T04:10:11.383Z,14.7961
2022-11-03T04:11:15.828Z,14.8
2022-11-03T04:12:10.694Z,14.7881
2022-11-03T04:13:11.589Z,14.7915
2022-11-03T04:14:11.668Z,14.7881
2022-11-03T04:15:11.935Z,14.786
2022-11-03T04:16:11.227Z,14.795
2022-11-03T04:17:11.382Z,14.7881
2022-11-03T04:18:11.643Z,14.786
2022-11-03T04:19:11.314Z,14.799
2022-11-03T04:20:11.037Z,14.795
2022-11-03T04:21:12.402Z,14.8007
2022-11-03T04:22:11.520Z,14.7772
2022-11-03T04:23:11.374Z,14.765
2022-11-03T04:24:11.930Z,14.76
2022-11-03T04:25:12.359Z,14.79
2022-11-03T04:26:11.638Z,14.79
2022-11-03T04:27:12.133Z,14.79
2022-11-03T04:28:11.320Z,14.79
2022-11-03T04:29:11.541Z,14.765
2022-11-03T04:30:10.872Z,14.77
2022-11-03T04:31:11.643Z,14.76
2022-11-03T04:32:11.462Z,14.755
2022-11-03T04:33:11.740Z,14.765
2022-11-03T04:34:11.793Z,14.775
2022-11-03T04:35:16.771Z,14.8
2022-11-03T04:36:11.815Z,14.801
2022-11-03T04:37:11.723Z,14.76
2022-11-03T04:38:10.842Z,14.78
2022-11-03T04:39:12.116Z,14.76
2022-11-03T04:40:12.769Z,14.775
2022-11-03T04:41:11.401Z,14.77
2022-11-03T04:42:12.108Z,14.775
2022-11-03T04:43:11.782Z,14.765
2022-11-03T04:44:11.697Z,14.775
2022-11-03T04:45:12.214Z,14.76
2022-11-03T04:46:11.607Z,14.765
2022-11-03T04:47:12.247Z,14.765
2022-11-03T04:48:12.298Z,14.755
2022-11-03T04:49:11.212Z,14.76
2022-11-03T04:50:11.961Z,14.76
2022-11-03T04:51:12.091Z,14.78
2022-11-03T04:52:11.776Z,14.81
2022-11-03T04:53:11.330Z,14.827
2022-11-03T04:54:12.193Z,14.856
2022-11-03T04:55:12.268Z,14.845
2022-11-03T04:56:12.819Z,14.839
2022-11-03T04:57:11.920Z,14.839
2022-11-03T04:58:16.288Z,14.839
2022-11-03T04:59:11.813Z,14.8683
2022-11-03T05:00:13.233Z,14.839
2022-11-03T05:01:12.684Z,14.845
2022-11-03T05:02:12.669Z,14.85
2022-11-03T05:03:11.591Z,14.856
2022-11-03T05:04:11.991Z,14.845
2022-11-03T05:05:12.866Z,14.827
2022-11-03T05:06:12.583Z,14.8216
2022-11-03T05:07:11.816Z,14.833
2022-11-03T05:08:15.457Z,14.8207
2022-11-03T05:09:12.487Z,14.817
2022-11-03T05:10:11.840Z,14.8
2022-11-03T05:11:15.560Z,14.8107
2022-11-03T05:12:12.201Z,14.8672
2022-11-03T05:13:12.070Z,14.845
2022-11-03T05:14:11.886Z,14.856
2022-11-03T05:15:12.055Z,14.85
2022-11-03T05:16:12.727Z,14.8683
2022-11-03T05:17:12.094Z,14.873
2022-11-03T05:18:11.479Z,14.884
2022-11-03T05:19:12.144Z,14.8741
2022-11-03T05:20:12.070Z,14.862
2022-11-03T05:21:13.000Z,14.8791
2022-11-03T05:22:12.090Z,14.8741
2022-11-03T05:23:11.755Z,14.885
2022-11-03T05:24:12.349Z,14.89
2022-11-03T05:25:11.752Z,14.889
2022-11-03T05:26:12.101Z,14.905
2022-11-03T05:27:12.603Z,14.9
2022-11-03T05:28:11.735Z,14.91
2022-11-03T05:29:11.587Z,14.929
2022-11-03T05:30:12.687Z,14.9261
2022-11-03T05:31:12.162Z,14.955
2022-11-03T05:32:11.968Z,15.0054
2022-11-03T05:33:12.327Z,14.995
2022-11-03T05:34:12.462Z,14.985
2022-11-03T05:35:12.754Z,14.94
2022-11-03T05:36:12.895Z,14.925
2022-11-03T05:37:11.884Z,14.929
2022-11-03T05:38:12.469Z,14.949
2022-11-03T05:39:12.106Z,14.989
2022-11-03T05:40:12.119Z,14.995
2022-11-03T05:41:13.273Z,15.0138
2022-11-03T05:42:12.160Z,15.0109
2022-11-03T05:43:12.305Z,15.02
2022-11-03T05:44:12.467Z,15.041
2022-11-03T05:45:12.402Z,15.005
2022-11-03T05:46:11.747Z,15.005
2022-11-03T05:47:12.298Z,15.005
2022-11-03T05:48:11.510Z,14.975
2022-11-03T05:49:12.417Z,14.965
2022-11-03T05:50:13.157Z,14.95
2022-11-03T05:51:12.429Z,14.97
2022-11-03T05:52:11.408Z,14.985
2022-11-03T05:53:12.403Z,15.005
2022-11-03T05:54:14.414Z,15.02
2022-11-03T05:55:10.971Z,14.995
2022-11-03T05:56:16.282Z,15
2022-11-03T05:57:11.462Z,15.005
2022-11-03T05:58:11.386Z,15.01
2022-11-03T05:59:11.789Z,15.03
2022-11-03T06:00:11.249Z,15.04
2022-11-03T06:01:11.525Z,15.015
2022-11-03T06:02:12.185Z,15.04
2022-11-03T06:03:12.176Z,15.04
2022-11-03T06:04:11.416Z,15.08
2022-11-03T06:05:12.347Z,15.085
2022-11-03T06:06:11.698Z,15.095
2022-11-03T06:07:12.775Z,15.09
2022-11-03T06:08:11.579Z,15.105
2022-11-03T06:09:11.485Z,15.065
2022-11-03T06:10:12.615Z,15.08
2022-11-03T06:11:11.857Z,15.1
2022-11-03T06:12:10.976Z,15.075
2022-11-03T06:13:10.473Z,15.1
2022-11-03T06:14:12.122Z,15.1
2022-11-03T06:15:11.179Z,15.115
2022-11-03T06:16:12.242Z,15.11
2022-11-03T06:17:11.456Z,15.115
2022-11-03T06:18:10.565Z,15.06
2022-11-03T06:19:12.213Z,15.035
2022-11-03T06:20:11.562Z,15.05
2022-11-03T06:21:11.413Z,15.01
2022-11-03T06:22:11.099Z,15
2022-11-03T06:23:11.240Z,15
2022-11-03T06:24:10.797Z,15
2022-11-03T06:25:10.880Z,15.045
2022-11-03T06:26:16.762Z,15.06
2022-11-03T06:27:16.577Z,15.07
2022-11-03T06:28:12.012Z,15.06
2022-11-03T06:29:11.783Z,15.02
2022-11-03T06:30:11.278Z,14.985
2022-11-03T06:31:11.607Z,14.985
2022-11-03T06:32:10.726Z,15.015
2022-11-03T06:33:10.794Z,15.01
2022-11-03T06:34:11.629Z,14.97
2022-11-03T06:35:11.946Z,14.955
2022-11-03T06:36:10.703Z,14.945
2022-11-03T06:37:13.657Z,14.99
2022-11-03T06:38:10.872Z,14.945
2022-11-03T06:39:11.227Z,14.975
2022-11-03T06:40:11.809Z,15.01
2022-11-03T06:41:11.031Z,15.045
2022-11-03T06:42:10.951Z,15.035
2022-11-03T06:43:12.323Z,15.04
2022-11-03T06:44:11.205Z,15.065
2022-11-03T06:45:11.893Z,15.08
2022-11-03T06:46:12.507Z,15.045
2022-11-03T06:47:11.119Z,15.05
2022-11-03T06:48:11.565Z,15.095
2022-11-03T06:49:11.543Z,15.08
2022-11-03T06:50:11.203Z,15.025
2022-11-03T06:51:11.839Z,15.05
2022-11-03T06:52:11.200Z,15.08
2022-11-03T06:53:11.734Z,15.115
2022-11-03T06:54:11.176Z,15.09
2022-11-03T06:55:13.768Z,15.109
2022-11-03T06:56:11.750Z,15.06
2022-11-03T06:57:11.144Z,15.0436
2022-11-03T06:58:11.607Z,15.0507
2022-11-03T06:59:11.441Z,15.0927
2022-11-03T07:00:32.848Z,15.126
2022-11-03T07:01:12.059Z,15.1061
2022-11-03T07:02:11.549Z,15.1209
2022-11-03T07:03:11.040Z,15.158
2022-11-03T07:04:11.427Z,15.166
2022-11-03T07:05:11.623Z,15.2
2022-11-03T07:06:10.996Z,15.225
2022-11-03T07:07:10.900Z,15.255
2022-11-03T07:08:11.101Z,15.26
2022-11-03T07:09:10.859Z,15.265
2022-11-03T07:10:11.489Z,15.295
2022-11-03T07:11:11.159Z,15.3216
2022-11-03T07:12:11.076Z,15.3
2022-11-03T07:13:12.103Z,15.285
2022-11-03T07:14:11.025Z,15.305
2022-11-03T07:15:11.647Z,15.35
2022-11-03T07:16:13.499Z,15.388
2022-11-03T07:17:11.707Z,15.425
2022-11-03T07:18:11.801Z,15.46
2022-11-03T07:19:11.227Z,15.49
2022-11-03T07:20:11.823Z,15.52
2022-11-03T07:21:11.435Z,15.56
2022-11-03T07:22:11.513Z,15.59
2022-11-03T07:23:11.869Z,15.605
2022-11-03T07:24:11.655Z,15.6
2022-11-03T07:25:11.136Z,15.61
2022-11-03T07:26:12.064Z,15.66
2022-11-03T07:27:11.142Z,15.6841
2022-11-03T07:28:11.632Z,15.694
2022-11-03T07:29:11.628Z,15.745
2022-11-03T07:30:11.709Z,15.76
2022-11-03T07:31:16.913Z,15.78
2022-11-03T07:32:11.462Z,15.839
2022-11-03T07:33:11.335Z,15.8216
2022-11-03T07:34:11.982Z,15.833
2022-11-03T07:35:11.600Z,15.839
2022-11-03T07:36:15.876Z,15.845
2022-11-03T07:38:11.741Z,15.915
2022-11-03T07:39:11.403Z,15.945
2022-11-03T07:40:11.965Z,15.965
2022-11-03T07:41:11.972Z,15.98
2022-11-03T07:42:11.331Z,15.99
2022-11-03T07:43:11.620Z,16.01
2022-11-03T07:44:11.951Z,16.02
2022-11-03T07:45:11.276Z,16.04
2022-11-03T07:46:11.747Z,16.025
2022-11-03T07:47:16.879Z,16.005
2022-11-03T07:48:11.532Z,16.045
2022-11-03T07:49:11.820Z,16.05
2022-11-03T07:50:11.874Z,16.035
2022-11-03T07:51:11.731Z,16.015
2022-11-03T07:52:11.376Z,16.055
2022-11-03T07:53:12.104Z,16.07
2022-11-03T07:54:15.648Z,16.06
2022-11-03T07:55:12.085Z,16.0872
2022-11-03T07:56:11.642Z,16.1
2022-11-03T07:57:11.868Z,16.122
2022-11-03T07:58:12.059Z,16.166
2022-11-03T07:59:12.489Z,16.155
2022-11-03T08:00:12.475Z,16.137
2022-11-03T08:01:11.952Z,16.166
2022-11-03T08:02:12.232Z,16.188
2022-11-03T08:03:12.372Z,16.21
2022-11-03T08:04:11.641Z,16.2
2022-11-03T08:05:11.900Z,16.2
2022-11-03T08:06:14.594Z,16.245
2022-11-03T08:07:12.244Z,16.235
2022-11-03T08:08:11.674Z,16.22
2022-11-03T08:09:12.358Z,16.26
2022-11-03T08:10:12.113Z,16.265
2022-11-03T08:12:12.359Z,16.255
2022-11-03T08:13:11.860Z,16.26
2022-11-03T08:14:11.870Z,16.29
2022-11-03T08:15:12.157Z,16.345
2022-11-03T08:16:12.018Z,16.345
2022-11-03T08:17:11.888Z,16.3672
2022-11-03T08:18:12.263Z,16.373
2022-11-03T08:19:12.036Z,16.4181
2022-11-03T08:20:11.726Z,16.43
2022-11-03T08:21:12.332Z,16.467
2022-11-03T08:22:11.987Z,16.505
2022-11-03T08:23:25.171Z,16.485
2022-11-03T08:24:11.823Z,16.53
2022-11-03T08:25:12.074Z,16.56
2022-11-03T08:26:12.846Z,16.5646
2022-11-03T08:27:12.372Z,16.5709
2022-11-03T08:28:12.137Z,16.59
2022-11-03T08:29:12.989Z,16.6258
2022-11-03T08:30:15.943Z,16.646
2022-11-03T08:31:13.189Z,16.6772
2022-11-03T08:32:12.787Z,16.672
2022-11-03T08:33:12.386Z,16.6891
2022-11-03T08:34:12.010Z,16.7
